Port Jefferson Station, New York
Current Conditions -  °F | °C
As of 5:56 PM on Tuesday 25 Nov 2014 (Local Time) from KISP Reporting Station
Clear Clear  
Wind Chill: 45°   Ceiling: Unl
Heat Index: 48°   Visibility: 10mi
Dew Point: 35°   Wind: 6mph
Humidity: 61%   Direction: 230°SW
Pressure: 30.03"   Gusts: NA
Location:  40.93°N, 73.05°W
Report Text: KISP 252256Z 23005KT 10SM CLR 09/02 A3003 RMK AO2 SLP169 T00890017
Loading
Personal Weather Stations






























Interactive Weather Map New forecast layout! Learn more

10-Day Weather Forecast

Advertisements
Track Severe Weather on mobile